Time;durP1;ratioP1;P1;durP2;ratioP2;P2;SDS_P1;SDS_P2;PMS_P1;PMS_P2;Temp;Humidity;BMP_temperature;BMP_pressure;BME280_temperature;BME280_humidity;BME280_pressure;Samples;Min_cycle;Max_cycle;Signal;HPM_P1;HPM_P2
2021/04/04 00:01:41;;;;;;;10.80;6.55;;;153.80;2150.40;;;;;;4854139;29;20037;-75
2021/04/04 00:04:07;;;;;;;14.48;7.00;;;153.80;2150.40;;;;;;4837290;29;20488;-75
2021/04/04 00:06:33;;;;;;;14.07;8.13;;;153.90;2150.40;;;;;;4824488;29;20037;-75
2021/04/04 00:08:59;;;;;;;10.00;6.80;;;154.00;2150.40;;;;;;4845017;29;20487;-76
2021/04/04 00:11:25;;;;;;;11.18;7.53;;;153.90;2150.40;;;;;;4842829;29;20041;-76
2021/04/04 00:13:51;;;;;;;10.93;7.18;;;154.00;2124.80;;;;;;4857886;29;20034;-76
2021/04/04 00:16:16;;;;;;;11.90;6.85;;;154.00;2150.40;;;;;;4823997;29;20145;-76
2021/04/04 00:18:42;;;;;;;11.27;7.15;;;154.00;2150.40;;;;;;4840548;29;20038;-75
2021/04/04 00:21:09;;;;;;;9.82;6.95;;;154.00;2150.40;;;;;;4838619;29;20033;-76
2021/04/04 00:23:35;;;;;;;10.82;6.90;;;153.90;2150.40;;;;;;4840388;29;20030;-76
2021/04/04 00:26:01;;;;;;;15.45;8.02;;;153.90;2150.40;;;;;;4840102;29;20105;-76
2021/04/04 00:28:27;;;;;;;10.68;7.22;;;153.80;2150.40;;;;;;4841500;29;20072;-76
2021/04/04 00:30:52;;;;;;;10.00;6.50;;;153.70;2176.00;;;;;;4824653;29;20090;-76
2021/04/04 00:33:18;;;;;;;12.80;7.10;;;153.70;2176.00;;;;;;4829756;29;20037;-76
2021/04/04 00:35:44;;;;;;;12.45;7.03;;;153.70;2176.00;;;;;;4824660;29;20084;-77
2021/04/04 00:38:10;;;;;;;12.70;6.60;;;153.80;2176.00;;;;;;4840453;29;20523;-76
2021/04/04 00:40:38;;;;;;;12.07;6.68;;;153.80;2150.40;;;;;;4824781;29;20037;-77
2021/04/04 00:43:04;;;;;;;11.65;6.75;;;153.80;2150.40;;;;;;4836949;29;20029;-77
2021/04/04 00:45:33;;;;;;;12.05;7.50;;;153.80;2150.40;;;;;;4840280;29;20118;-77
2021/04/04 00:47:59;;;;;;;16.83;7.05;;;153.80;2150.40;;;;;;4841257;29;20033;-77
2021/04/04 00:50:29;;;;;;;9.20;6.88;;;153.80;2150.40;;;;;;4840349;29;20026;-76
2021/04/04 00:52:55;;;;;;;11.13;7.35;;;153.70;2150.40;;;;;;4840930;29;20030;-76
2021/04/04 00:55:22;;;;;;;11.15;6.72;;;153.70;2176.00;;;;;;4826227;29;20040;-77
2021/04/04 00:57:49;;;;;;;12.65;7.75;;;153.60;2150.40;;;;;;4834232;29;20034;-76
2021/04/04 01:00:16;;;;;;;10.98;6.45;;;128.90;2176.00;;;;;;4827074;29;20026;-76
2021/04/04 01:02:43;;;;;;;9.60;7.03;;;128.90;2176.00;;;;;;4843814;29;20026;-76
2021/04/04 01:05:13;;;;;;;10.20;6.90;;;128.80;2176.00;;;;;;4826920;29;20409;-76
2021/04/04 01:07:39;;;;;;;11.00;7.10;;;128.70;2201.60;;;;;;4814385;29;20090;-77
2021/04/04 01:10:07;;;;;;;13.30;7.55;;;128.80;2176.00;;;;;;4843086;29;20034;-76
2021/04/04 01:12:58;;;;;;;14.55;7.93;;;128.70;2201.60;;;;;;4843416;29;20037;-77
2021/04/04 01:15:27;;;;;;;12.50;6.97;;;128.70;2201.60;;;;;;4826848;29;20026;-75
2021/04/04 01:18:30;;;;;;;13.57;7.63;;;128.70;2201.60;;;;;;4826972;29;20058;-76
2021/04/04 01:20:59;;;;;;;12.90;7.03;;;128.80;2201.60;;;;;;4768946;30;20501;-75
2021/04/04 01:23:33;;;;;;;11.63;8.10;;;128.70;2201.60;;;;;;4775181;30;20136;-74
2021/04/04 01:26:09;;;;;;;12.20;7.57;;;128.70;2227.20;;;;;;4784813;30;20050;-74
2021/04/04 01:28:39;;;;;;;12.23;6.82;;;128.70;2201.60;;;;;;4783948;30;20039;-73
2021/04/04 01:31:07;;;;;;;11.20;7.03;;;128.70;2201.60;;;;;;4786200;30;20485;-73
2021/04/04 01:33:34;;;;;;;15.07;8.73;;;128.80;2201.60;;;;;;4786058;30;20031;-74
2021/04/04 01:36:02;;;;;;;11.93;6.65;;;128.80;2201.60;;;;;;4782510;30;20059;-73
2021/04/04 01:38:31;;;;;;;13.85;6.82;;;128.70;2201.60;;;;;;4784376;30;20043;-74
2021/04/04 01:41:08;;;;;;;17.02;8.43;;;128.80;2176.00;;;;;;4791788;29;20031;-73
2021/04/04 01:43:35;;;;;;;11.63;7.45;;;128.80;2201.60;;;;;;4776636;30;20039;-74
2021/04/04 01:46:02;;;;;;;15.60;7.60;;;128.90;2201.60;;;;;;4783670;30;20046;-74
2021/04/04 01:48:30;;;;;;;11.65;8.32;;;128.90;2201.60;;;;;;4791412;29;20019;-74
2021/04/04 01:50:57;;;;;;;14.13;8.57;;;128.80;2201.60;;;;;;4786573;30;20371;-73
2021/04/04 01:53:24;;;;;;;13.07;7.82;;;128.90;2201.60;;;;;;4788319;29;20043;-73
2021/04/04 01:55:49;;;;;;;11.25;7.25;;;128.90;2201.60;;;;;;4774019;30;20078;-73
2021/04/04 01:58:16;;;;;;;14.80;7.60;;;128.80;2227.20;;;;;;4821360;29;20073;-74
2021/04/04 02:00:43;;;;;;;12.55;8.73;;;128.90;2227.20;;;;;;4843059;29;20105;-73
2021/04/04 02:03:09;;;;;;;12.05;8.50;;;128.90;2252.80;;;;;;4841706;29;20484;-74
2021/04/04 02:05:36;;;;;;;16.85;9.40;;;128.90;2252.80;;;;;;4842845;29;20074;-73
2021/04/04 02:08:07;;;;;;;13.82;8.52;;;153.60;2252.80;;;;;;4825487;29;20030;-73
2021/04/04 02:10:36;;;;;;;12.80;8.80;;;153.60;2252.80;;;;;;4842484;29;20425;-74
2021/04/04 02:13:02;;;;;;;13.82;9.05;;;153.60;2252.80;;;;;;4826377;29;20445;-74
2021/04/04 02:15:30;;;;;;;15.55;8.95;;;153.70;2252.80;;;;;;4842364;29;20105;-74
2021/04/04 02:17:57;;;;;;;11.52;8.48;;;153.60;2252.80;;;;;;4842702;29;20055;-74
2021/04/04 02:20:25;;;;;;;14.18;9.48;;;153.60;2252.80;;;;;;4825495;29;20042;-74
2021/04/04 02:22:52;;;;;;;13.18;9.77;;;153.60;2252.80;;;;;;4842200;29;20026;-73
2021/04/04 02:25:18;;;;;;;15.07;9.00;;;153.60;2252.80;;;;;;4842288;29;20053;-74
2021/04/04 02:27:45;;;;;;;13.73;8.77;;;153.60;2252.80;;;;;;4842313;29;20085;-73
2021/04/04 02:30:15;;;;;;;15.32;10.25;;;153.60;2252.80;;;;;;4841501;29;20057;-74
2021/04/04 02:32:46;;;;;;;13.40;8.60;;;153.60;2252.80;;;;;;4841654;29;20022;-73
2021/04/04 02:35:18;;;;;;;16.23;10.57;;;153.60;2252.80;;;;;;4825060;29;20037;-73
2021/04/04 02:37:45;;;;;;;13.00;9.02;;;153.60;2252.80;;;;;;4829602;29;20033;-73
2021/04/04 02:40:13;;;;;;;13.32;8.90;;;153.60;2252.80;;;;;;4842282;29;20078;-73
2021/04/04 02:42:40;;;;;;;17.52;10.43;;;153.60;2252.80;;;;;;4841057;29;20066;-73
2021/04/04 02:45:08;;;;;;;16.17;10.77;;;153.60;2252.80;;;;;;4825076;29;20042;-73
2021/04/04 02:47:39;;;;;;;13.77;9.52;;;153.60;2252.80;;;;;;4825693;29;20937;-74
2021/04/04 02:50:08;;;;;;;15.35;10.60;;;153.60;2252.80;;;;;;4841337;29;20026;-73
2021/04/04 02:52:38;;;;;;;17.70;10.73;;;153.60;2252.80;;;;;;4842128;29;20158;-74
2021/04/04 02:55:07;;;;;;;17.52;11.88;;;128.90;2252.80;;;;;;4841483;29;20026;-74
2021/04/04 02:57:33;;;;;;;15.60;11.68;;;128.90;2252.80;;;;;;4841829;29;20484;-74
2021/04/04 03:00:03;;;;;;;16.80;11.18;;;128.80;2252.80;;;;;;4822601;29;20034;-73
2021/04/04 03:02:30;;;;;;;16.17;11.18;;;128.90;2252.80;;;;;;4834647;29;20045;-73
2021/04/04 03:05:01;;;;;;;18.70;12.27;;;128.80;2252.80;;;;;;4825178;29;20081;-74
2021/04/04 03:07:28;;;;;;;16.02;11.50;;;128.80;2252.80;;;;;;4841614;29;20022;-74
2021/04/04 03:09:55;;;;;;;17.17;12.10;;;128.80;2252.80;;;;;;4824584;29;20033;-74
2021/04/04 03:12:24;;;;;;;17.05;12.05;;;128.70;2252.80;;;;;;4824690;29;20030;-73
2021/04/04 03:14:51;;;;;;;18.55;12.70;;;128.60;2252.80;;;;;;4841656;29;20030;-73
2021/04/04 03:17:18;;;;;;;18.27;11.27;;;128.70;2252.80;;;;;;4824850;29;20385;-73
2021/04/04 03:19:45;;;;;;;15.85;10.88;;;128.70;2252.80;;;;;;4824997;29;20030;-73
2021/04/04 03:22:12;;;;;;;16.98;12.40;;;128.60;2252.80;;;;;;4839268;29;20064;-73
2021/04/04 03:24:40;;;;;;;16.35;11.50;;;128.60;2252.80;;;;;;4835946;29;20474;-73
2021/04/04 03:27:07;;;;;;;17.80;11.30;;;128.50;2252.80;;;;;;4840457;29;20049;-73
2021/04/04 03:29:34;;;;;;;17.52;12.43;;;128.50;2252.80;;;;;;4816705;29;20041;-74
2021/04/04 03:32:01;;;;;;;18.30;11.27;;;128.50;2252.80;;;;;;4822022;29;20112;-74
2021/04/04 03:34:27;;;;;;;18.00;10.85;;;128.50;2252.80;;;;;;4806747;29;20076;-74
2021/04/04 03:36:54;;;;;;;19.33;12.32;;;128.60;2252.80;;;;;;4825372;29;20034;-74
2021/04/04 03:39:22;;;;;;;22.13;13.63;;;128.50;2252.80;;;;;;4804479;29;20045;-74
2021/04/04 03:41:50;;;;;;;22.02;14.25;;;128.50;2252.80;;;;;;4806549;29;20030;-74
2021/04/04 03:44:21;;;;;;;18.85;13.00;;;128.50;2252.80;;;;;;4823548;29;20058;-74
2021/04/04 03:46:47;;;;;;;24.20;13.27;;;128.50;2252.80;;;;;;4823632;29;20034;-73
2021/04/04 03:49:14;;;;;;;21.67;12.23;;;128.50;2252.80;;;;;;4815441;29;20035;-74
2021/04/04 03:51:40;;;;;;;21.52;12.43;;;128.60;2252.80;;;;;;4816821;29;20030;-73
2021/04/04 03:54:11;;;;;;;20.42;13.25;;;128.70;2252.80;;;;;;4829414;29;20541;-74
2021/04/04 03:56:41;;;;;;;19.67;12.63;;;128.60;2252.80;;;;;;4834823;29;20071;-74
2021/04/04 03:59:10;;;;;;;19.13;13.48;;;128.70;2252.80;;;;;;4822925;29;20063;-74
2021/04/04 04:01:39;;;;;;;18.52;13.18;;;128.70;2252.80;;;;;;4806470;29;20034;-74
2021/04/04 04:04:08;;;;;;;17.23;12.35;;;128.80;2252.80;;;;;;4821326;29;20074;-73
2021/04/04 04:06:35;;;;;;;20.25;12.73;;;128.80;2252.80;;;;;;4835670;29;20031;-73
2021/04/04 04:09:08;;;;;;;21.70;13.45;;;128.70;2252.80;;;;;;4812352;29;20039;-74
2021/04/04 04:11:40;;;;;;;17.63;11.50;;;128.50;2252.80;;;;;;4822421;29;20060;-74
2021/04/04 04:14:06;;;;;;;21.35;13.52;;;128.50;2252.80;;;;;;4806006;29;20039;-74
2021/04/04 04:16:36;;;;;;;19.02;13.13;;;128.40;2252.80;;;;;;4821067;29;20034;-73
2021/04/04 04:19:03;;;;;;;19.00;13.27;;;128.40;2252.80;;;;;;4824788;29;20026;-74
2021/04/04 04:21:31;;;;;;;20.45;13.77;;;128.40;2252.80;;;;;;4839788;29;20033;-74
2021/04/04 04:23:58;;;;;;;20.02;12.30;;;128.40;2252.80;;;;;;4824365;29;20492;-74
2021/04/04 04:26:24;;;;;;;21.45;13.20;;;128.40;2252.80;;;;;;4831458;29;20077;-74
2021/04/04 04:28:50;;;;;;;19.35;12.32;;;128.40;2252.80;;;;;;4824526;29;20033;-74
2021/04/04 04:31:26;;;;;;;19.38;12.98;;;128.40;2252.80;;;;;;4842542;29;20391;-74
2021/04/04 04:33:54;;;;;;;21.38;14.02;;;128.40;2252.80;;;;;;4827297;29;20033;-74
2021/04/04 04:36:21;;;;;;;24.88;14.82;;;128.30;2252.80;;;;;;4843960;29;20038;-75
2021/04/04 04:38:51;;;;;;;19.02;12.73;;;128.30;2252.80;;;;;;4827595;29;20030;-74
2021/04/04 04:41:19;;;;;;;20.65;13.48;;;128.30;2252.80;;;;;;4825798;29;20034;-74
2021/04/04 04:43:49;;;;;;;20.70;14.68;;;128.30;2252.80;;;;;;4819564;29;20044;-74
2021/04/04 04:46:16;;;;;;;22.05;14.55;;;128.20;2252.80;;;;;;4825625;29;20054;-74
2021/04/04 04:48:42;;;;;;;21.13;14.15;;;128.30;2252.80;;;;;;4825312;29;20029;-75
2021/04/04 04:51:09;;;;;;;22.45;16.05;;;128.40;2252.80;;;;;;4809379;29;20117;-74
2021/04/04 04:53:34;;;;;;;18.67;12.63;;;128.40;2252.80;;;;;;4837092;29;20026;-75
2021/04/04 04:56:02;;;;;;;20.85;13.20;;;128.40;2252.80;;;;;;4826303;29;20463;-75
2021/04/04 04:58:33;;;;;;;18.13;13.13;;;128.50;2252.80;;;;;;4825763;29;20064;-74
2021/04/04 05:01:02;;;;;;;19.08;12.50;;;128.40;2252.80;;;;;;4808992;29;20030;-74
2021/04/04 05:03:28;;;;;;;20.30;12.63;;;128.50;2252.80;;;;;;4825580;29;20056;-74
2021/04/04 05:05:57;;;;;;;17.52;12.27;;;128.50;2252.80;;;;;;4829386;29;20029;-74
2021/04/04 05:08:24;;;;;;;16.67;10.98;;;128.50;2252.80;;;;;;4820227;29;20450;-74
2021/04/04 05:10:52;;;;;;;15.98;11.20;;;128.50;2252.80;;;;;;4825158;29;20054;-74
2021/04/04 05:13:19;;;;;;;18.27;11.60;;;128.50;2252.80;;;;;;4837799;29;20033;-74
2021/04/04 05:15:47;;;;;;;16.08;11.27;;;128.60;2252.80;;;;;;4823890;29;20034;-75
2021/04/04 05:18:13;;;;;;;15.02;10.43;;;128.60;2252.80;;;;;;4807460;29;20125;-74
2021/04/04 05:20:39;;;;;;;13.45;9.82;;;128.70;2252.80;;;;;;4823654;29;20113;-75
2021/04/04 05:23:06;;;;;;;13.25;8.73;;;128.80;2252.80;;;;;;4823755;29;20426;-75
2021/04/04 05:25:33;;;;;;;14.10;9.15;;;128.90;2252.80;;;;;;4826667;29;20035;-76
2021/04/04 05:27:59;;;;;;;11.75;9.00;;;153.60;2252.80;;;;;;4818080;29;20074;-75
2021/04/04 05:30:26;;;;;;;11.93;7.75;;;153.70;2252.80;;;;;;4826460;29;20511;-75
2021/04/04 05:32:52;;;;;;;9.93;7.05;;;153.80;2252.80;;;;;;4826250;29;20071;-74
2021/04/04 05:35:24;;;;;;;9.18;6.65;;;154.00;2252.80;;;;;;4823485;29;20041;-75
2021/04/04 05:37:51;;;;;;;13.35;7.88;;;154.00;2252.80;;;;;;4826692;29;20030;-75
2021/04/04 05:40:21;;;;;;;11.43;6.70;;;154.20;2252.80;;;;;;4826173;29;20031;-79
2021/04/04 05:42:56;;;;;;;10.57;6.70;;;154.40;2252.80;;;;;;4843146;29;20026;-78
2021/04/04 05:45:35;;;;;;;12.82;6.82;;;154.50;2252.80;;;;;;4826098;29;20042;-77
2021/04/04 05:48:14;;;;;;;7.95;5.97;;;154.50;2252.80;;;;;;4849166;29;20405;-76
2021/04/04 05:51:06;;;;;;;8.48;5.28;;;179.20;2252.80;;;;;;4831944;29;20435;-75
2021/04/04 05:53:53;;;;;;;9.25;5.93;;;154.50;2252.80;;;;;;4851892;29;20566;-75
2021/04/04 05:56:28;;;;;;;8.40;6.35;;;179.20;2252.80;;;;;;4842650;29;20034;-76
2021/04/04 05:59:06;;;;;;;8.68;6.00;;;179.20;2252.80;;;;;;4843073;29;20062;-76
2021/04/04 06:01:32;;;;;;;7.85;5.78;;;179.20;2252.80;;;;;;4826836;29;20038;-76
2021/04/04 06:04:31;;;;;;;8.50;5.50;;;154.50;2252.80;;;;;;4820518;29;20037;-76
2021/04/04 06:07:19;;;;;;;9.35;6.40;;;179.20;2252.80;;;;;;4817486;29;20492;-76
2021/04/04 06:10:01;;;;;;;8.50;5.90;;;154.50;2252.80;;;;;;4839838;29;20061;-76
2021/04/04 06:12:54;;;;;;;9.38;6.15;;;179.20;2252.80;;;;;;4823180;29;20033;-73
2021/04/04 06:15:41;;;;;;;10.38;7.00;;;179.40;2252.80;;;;;;4838771;29;20113;-73
2021/04/04 06:18:27;;;;;;;10.00;7.07;;;179.50;2252.80;;;;;;4840503;29;20022;-78
2021/04/04 06:21:23;;;;;;;10.93;6.38;;;179.70;2227.20;;;;;;4841675;29;20384;-74
2021/04/04 06:24:04;;;;;;;9.40;6.65;;;179.90;2227.20;;;;;;4821611;29;20433;-75
2021/04/04 06:26:37;;;;;;;10.82;6.72;;;204.90;2176.00;;;;;;4824470;29;20050;-74
2021/04/04 06:29:08;;;;;;;9.77;7.10;;;205.00;2150.40;;;;;;4840157;29;20086;-75
2021/04/04 06:31:59;;;;;;;8.48;6.30;;;205.00;2150.40;;;;;;4825809;29;20030;-75
2021/04/04 06:34:53;;;;;;;9.35;6.88;;;205.00;2124.80;;;;;;4840194;29;20053;-74
2021/04/04 06:37:33;;;;;;;11.27;6.22;;;204.90;2124.80;;;;;;4839552;29;20392;-73
2021/04/04 06:40:06;;;;;;;10.27;6.65;;;204.90;2124.80;;;;;;4836458;29;20079;-74
2021/04/04 06:42:51;;;;;;;10.43;6.97;;;204.90;2124.80;;;;;;4825667;29;20105;-75
2021/04/04 06:45:47;;;;;;;7.43;6.25;;;204.80;2124.80;;;;;;4820581;29;20083;-76
2021/04/04 06:48:35;;;;;;;9.48;6.53;;;204.90;2099.20;;;;;;4824499;29;20046;-75
2021/04/04 06:51:27;;;;;;;10.43;7.78;;;204.90;2099.20;;;;;;4839513;29;20046;-76
2021/04/04 06:54:09;;;;;;;17.95;6.07;;;205.00;2022.40;;;;;;4766399;30;20047;-75
2021/04/04 06:56:40;;;;;;;10.65;6.15;;;205.30;2022.40;;;;;;4767378;30;20398;-76
2021/04/04 06:59:32;;;;;;;11.95;8.98;;;205.40;2022.40;;;;;;4766706;30;20043;-74
2021/04/04 07:02:02;;;;;;;7.97;5.95;;;205.70;2022.40;;;;;;4759255;30;20039;-75
2021/04/04 07:04:53;;;;;;;10.63;6.25;;;230.40;1945.60;;;;;;4767008;30;20047;-74
2021/04/04 07:07:33;;;;;;;7.30;5.72;;;230.50;1920.00;;;;;;4696625;30;20511;-75
2021/04/04 07:10:32;;;;;;;9.38;6.22;;;205.70;1894.40;;;;;;4696437;30;20042;-74
2021/04/04 07:13:28;;;;;;;11.27;6.43;;;230.40;1920.00;;;;;;4696572;30;20053;-74
2021/04/04 07:16:15;;;;;;;9.20;6.15;;;230.40;1971.20;;;;;;4696976;30;20548;-74
2021/04/04 07:19:02;;;;;;;8.57;6.75;;;205.70;1971.20;;;;;;4698203;30;20176;-74
2021/04/04 07:22:09;;;;;;;11.25;7.28;;;230.50;1945.60;;;;;;4695505;30;20504;-74
2021/04/04 07:25:00;;;;;;;9.73;7.03;;;230.40;1945.60;;;;;;4661914;30;20058;-74
2021/04/04 07:27:26;;;;;;;11.95;7.55;;;230.40;1945.60;;;;;;4678498;30;20085;-75
2021/04/04 07:30:32;;;;;;;10.27;6.75;;;205.70;1945.60;;;;;;4682434;30;20170;-74
2021/04/04 07:33:03;;;;;;;8.02;6.75;;;205.70;1945.60;;;;;;4679325;30;20034;-74
2021/04/04 07:35:54;;;;;;;11.20;7.65;;;230.40;1971.20;;;;;;4663260;30;20042;-74
2021/04/04 07:38:31;;;;;;;8.55;5.40;;;230.40;1945.60;;;;;;4694002;30;20049;-74
2021/04/04 07:41:11;;;;;;;7.80;5.85;;;205.50;1868.80;;;;;;4695669;30;20428;-75
2021/04/04 07:43:48;;;;;;;9.02;6.20;;;205.60;1868.80;;;;;;4703140;30;20100;-75
2021/04/04 07:47:03;;;;;;;8.13;6.18;;;205.60;1868.80;;;;;;4762096;30;20035;-76
2021/04/04 07:49:38;;;;;;;9.95;7.05;;;230.40;1868.80;;;;;;4762845;29;20745;-75
2021/04/04 07:52:37;;;;;;;10.57;7.13;;;205.70;1868.80;;;;;;4765789;30;20040;-75
2021/04/04 07:55:16;;;;;;;10.63;6.72;;;205.70;1868.80;;;;;;4701307;30;20540;-75
2021/04/04 07:58:06;;;;;;;8.13;5.55;;;230.40;1868.80;;;;;;4703479;30;20049;-75
2021/04/04 08:00:34;;;;;;;11.52;6.88;;;205.70;1843.20;;;;;;4708004;30;20127;-74
2021/04/04 08:03:47;;;;;;;9.57;6.43;;;230.50;1843.20;;;;;;4730033;30;20068;-74
2021/04/04 08:06:30;;;;;;;9.68;6.93;;;230.60;1817.60;;;;;;4681924;30;20181;-74
2021/04/04 08:09:18;;;;;;;9.48;7.88;;;230.80;1843.20;;;;;;4675930;30;20037;-74
2021/04/04 08:12:19;;;;;;;10.35;6.70;;;230.70;1817.60;;;;;;4718172;30;20527;-75
2021/04/04 08:14:50;;;;;;;9.57;6.88;;;230.80;1792.00;;;;;;4702558;30;20952;-75
2021/04/04 08:17:16;;;;;;;12.05;6.57;;;230.70;1817.60;;;;;;4733651;30;20048;-75
2021/04/04 08:19:49;;;;;;;10.18;7.28;;;230.50;1894.40;;;;;;4717616;30;20131;-74
2021/04/04 08:22:23;;;;;;;11.45;8.18;;;205.70;1945.60;;;;;;4733265;30;20036;-76
2021/04/04 08:25:05;;;;;;;11.27;8.75;;;205.50;1971.20;;;;;;4718081;30;20068;-74
2021/04/04 08:27:50;;;;;;;12.60;9.10;;;205.40;1971.20;;;;;;4732729;30;20056;-74
2021/04/04 08:30:20;;;;;;;10.48;8.63;;;205.30;1971.20;;;;;;4731524;30;20086;-74
2021/04/04 08:33:20;;;;;;;17.42;10.73;;;205.40;1996.80;;;;;;4742237;30;20036;-74
2021/04/04 08:35:49;;;;;;;14.30;10.05;;;205.50;1945.60;;;;;;4732105;30;20052;-75
2021/04/04 08:38:26;;;;;;;10.77;7.85;;;205.50;1945.60;;;;;;4731900;30;20036;-74
2021/04/04 08:40:58;;;;;;;11.55;8.48;;;205.60;1920.00;;;;;;4728335;30;20121;-75
2021/04/04 08:43:24;;;;;;;13.20;8.43;;;230.50;1894.40;;;;;;4786875;29;20039;-74
2021/04/04 08:46:06;;;;;;;11.70;8.18;;;230.80;1843.20;;;;;;4803053;29;20515;-72
2021/04/04 08:48:33;;;;;;;10.27;7.18;;;230.90;1817.60;;;;;;4789216;29;20043;-73
2021/04/04 08:51:04;;;;;;;9.98;7.00;;;230.90;1817.60;;;;;;4788519;29;20085;-71
2021/04/04 08:53:39;;;;;;;10.30;7.15;;;231.10;1817.60;;;;;;4804861;29;20127;-72
2021/04/04 08:56:05;;;;;;;12.18;8.23;;;231.30;1689.60;;;;;;4803289;29;20046;-72
2021/04/04 08:58:42;;;;;;;14.32;9.68;;;256.00;1740.80;;;;;;4801148;29;20054;-71
2021/04/04 09:01:15;;;;;;;13.95;8.27;;;231.30;1740.80;;;;;;4802701;29;20035;-72
2021/04/04 09:03:49;;;;;;;7.70;6.90;;;231.30;1740.80;;;;;;4798616;29;20118;-74
2021/04/04 09:06:16;;;;;;;12.70;9.02;;;231.00;1792.00;;;;;;4802410;29;20047;-71
2021/04/04 09:08:42;;;;;;;11.45;7.50;;;230.80;1920.00;;;;;;4789205;29;20035;-72
2021/04/04 09:11:10;;;;;;;18.40;8.73;;;230.70;1894.40;;;;;;4807425;29;20037;-71
2021/04/04 09:13:36;;;;;;;11.10;8.63;;;230.60;1868.80;;;;;;4842471;29;20037;-74
2021/04/04 09:16:16;;;;;;;17.00;11.50;;;230.80;1894.40;;;;;;4841698;29;20384;-73
2021/04/04 09:18:48;;;;;;;17.05;10.45;;;230.90;1894.40;;;;;;4842731;29;20472;-77
2021/04/04 09:21:15;;;;;;;13.05;7.85;;;231.00;1843.20;;;;;;4826801;29;20915;-73
2021/04/04 09:23:44;;;;;;;15.93;8.98;;;231.00;1792.00;;;;;;4841585;29;20038;-73
2021/04/04 09:26:11;;;;;;;10.80;7.63;;;231.20;1766.40;;;;;;4840732;29;20054;-73
2021/04/04 09:28:40;;;;;;;11.45;7.70;;;231.20;1715.20;;;;;;4824318;29;20030;-74
2021/04/04 09:31:17;;;;;;;14.07;10.93;;;231.10;1740.80;;;;;;4842277;29;20089;-74
2021/04/04 09:33:48;;;;;;;12.63;9.05;;;231.20;1766.40;;;;;;4839947;29;20102;-73
2021/04/04 09:36:15;;;;;;;16.27;10.70;;;231.10;1766.40;;;;;;4825927;29;20528;-72
2021/04/04 09:38:44;;;;;;;10.57;7.55;;;231.10;1766.40;;;;;;4845794;29;20026;-72
2021/04/04 09:41:11;;;;;;;10.65;7.43;;;230.90;1766.40;;;;;;4841274;29;20480;-72
2021/04/04 09:43:45;;;;;;;10.88;7.43;;;230.80;1766.40;;;;;;4824986;29;20038;-72
2021/04/04 09:46:11;;;;;;;11.30;7.25;;;230.70;1766.40;;;;;;4820891;29;20030;-72
2021/04/04 09:48:41;;;;;;;10.05;7.35;;;230.70;1766.40;;;;;;4837794;29;20098;-72
2021/04/04 09:51:09;;;;;;;9.25;6.80;;;230.80;1792.00;;;;;;4822243;29;20034;-72
2021/04/04 09:53:48;;;;;;;9.80;7.65;;;230.70;1843.20;;;;;;4838012;29;20030;-72
2021/04/04 09:56:16;;;;;;;8.93;6.43;;;230.80;1843.20;;;;;;4821528;29;20038;-73
2021/04/04 09:58:45;;;;;;;7.57;5.53;;;230.80;1817.60;;;;;;4840268;29;20044;-73
2021/04/04 10:01:19;;;;;;;9.00;6.35;;;230.60;1817.60;;;;;;4834582;29;20170;-72
2021/04/04 10:04:13;;;;;;;7.55;5.95;;;230.80;1817.60;;;;;;4838924;29;20488;-72
2021/04/04 10:06:39;;;;;;;12.05;8.55;;;230.90;1792.00;;;;;;4766096;30;20456;-73
2021/04/04 10:09:08;;;;;;;11.40;7.25;;;231.00;1817.60;;;;;;4765058;30;20039;-73
2021/04/04 10:11:35;;;;;;;10.30;7.43;;;231.20;1766.40;;;;;;4750334;30;20135;-72
2021/04/04 10:14:16;;;;;;;11.02;7.63;;;256.00;1740.80;;;;;;4766400;30;20063;-71
2021/04/04 10:16:42;;;;;;;9.57;6.07;;;256.20;1715.20;;;;;;4754076;30;20036;-73
2021/04/04 10:19:15;;;;;;;12.07;7.30;;;256.20;1715.20;;;;;;4767318;30;20089;-71
2021/04/04 10:21:54;;;;;;;9.35;7.00;;;256.30;1689.60;;;;;;4752097;30;20036;-72
2021/04/04 10:24:26;;;;;;;9.20;7.45;;;256.40;1664.00;;;;;;4767170;30;20040;-74
2021/04/04 10:27:23;;;;;;;13.07;7.68;;;256.50;1689.60;;;;;;4772729;30;20047;-72
2021/04/04 10:30:12;;;;;;;11.00;7.60;;;281.90;1638.40;;;;;;4769283;30;20422;-74
2021/04/04 10:32:43;;;;;;;7.97;6.13;;;282.20;1587.20;;;;;;4781457;30;20097;-74
2021/04/04 10:35:12;;;;;;;8.90;6.65;;;282.50;1561.60;;;;;;4784712;29;20039;-72
2021/04/04 10:37:39;;;;;;;10.52;7.38;;;307.20;1587.20;;;;;;4780622;29;20043;-74
2021/04/04 10:40:10;;;;;;;14.48;10.35;;;307.40;1587.20;;;;;;4784000;30;20493;-71
2021/04/04 10:42:38;;;;;;;14.15;9.05;;;307.50;1612.80;;;;;;4800995;29;20061;-72
2021/04/04 10:45:17;;;;;;;10.52;8.18;;;307.20;1612.80;;;;;;4840883;29;20102;-73
2021/04/04 10:47:44;;;;;;;12.30;8.30;;;282.20;1612.80;;;;;;4841222;29;20026;-72
2021/04/04 10:50:16;;;;;;;10.45;7.47;;;282.30;1587.20;;;;;;4841078;29;20204;-73
2021/04/04 10:52:44;;;;;;;9.68;7.43;;;282.10;1587.20;;;;;;4841520;29;20040;-73
2021/04/04 10:55:12;;;;;;;11.00;7.40;;;282.10;1638.40;;;;;;4841485;29;20102;-73
2021/04/04 10:57:39;;;;;;;9.43;7.68;;;281.90;1612.80;;;;;;4841480;29;20403;-73
2021/04/04 11:00:07;;;;;;;9.77;8.00;;;281.70;1638.40;;;;;;4838118;29;20037;-73
2021/04/04 11:02:39;;;;;;;8.63;7.38;;;256.90;1612.80;;;;;;4841444;29;20476;-73
2021/04/04 11:05:08;;;;;;;9.48;7.78;;;256.80;1638.40;;;;;;4841002;29;20483;-73
2021/04/04 11:07:35;;;;;;;14.07;8.73;;;256.70;1612.80;;;;;;4824061;29;20034;-72
2021/04/04 11:10:07;;;;;;;19.08;10.50;;;256.70;1612.80;;;;;;4840973;29;20034;-72
2021/04/04 11:12:34;;;;;;;11.27;7.97;;;281.60;1638.40;;;;;;4823979;29;20049;-72
2021/04/04 11:15:03;;;;;;;17.70;10.50;;;256.90;1638.40;;;;;;4839660;29;20038;-72
2021/04/04 11:17:30;;;;;;;22.67;13.82;;;256.90;1638.40;;;;;;4823881;29;20480;-72
2021/04/04 11:19:56;;;;;;;16.65;11.35;;;281.80;1664.00;;;;;;4840983;29;20077;-72
2021/04/04 11:22:23;;;;;;;22.13;14.18;;;281.60;1689.60;;;;;;4824282;29;20121;-72
2021/04/04 11:25:27;;;;;;;29.65;16.05;;;281.60;1689.60;;;;;;4831081;29;20449;-72
2021/04/04 11:27:53;;;;;;;11.55;7.85;;;281.80;1689.60;;;;;;4748845;30;20058;-73
2021/04/04 11:30:30;;;;;;;13.90;9.63;;;281.70;1689.60;;;;;;4765707;30;20044;-71
2021/04/04 11:33:18;;;;;;;11.98;8.40;;;256.90;1689.60;;;;;;4763389;30;20040;-71
2021/04/04 11:36:12;;;;;;;14.32;9.60;;;256.70;1715.20;;;;;;4763587;30;20027;-71
2021/04/04 11:38:50;;;;;;;15.02;10.40;;;256.90;1689.60;;;;;;4765152;30;20039;-72
2021/04/04 11:41:18;;;;;;;12.48;8.30;;;281.70;1715.20;;;;;;4765196;30;20067;-69
2021/04/04 11:43:47;;;;;;;12.32;8.00;;;281.80;1689.60;;;;;;4763973;30;20099;-71
2021/04/04 11:46:41;;;;;;;11.77;8.30;;;282.20;1664.00;;;;;;4762264;30;20042;-70
2021/04/04 11:49:41;;;;;;;10.60;7.57;;;307.20;1638.40;;;;;;4758377;30;20043;-70
2021/04/04 11:52:09;;;;;;;11.48;8.32;;;282.40;1612.80;;;;;;4765269;30;20076;-71
2021/04/04 11:54:41;;;;;;;8.27;6.93;;;307.20;1664.00;;;;;;4765158;30;20035;-73
2021/04/04 11:57:07;;;;;;;9.50;6.93;;;307.30;1612.80;;;;;;4766029;30;20048;-77
2021/04/04 11:59:33;;;;;;;10.55;7.60;;;307.20;1638.40;;;;;;4762099;30;20129;-73
2021/04/04 12:01:59;;;;;;;10.32;7.00;;;307.40;1587.20;;;;;;4766415;30;20562;-72
2021/04/04 12:07:14;;;;;;;8.18;5.43;;;282.40;1587.20;;;;;;4822747;29;20133;-72
2021/04/04 12:09:41;;;;;;;8.27;5.85;;;282.20;1612.80;;;;;;4820928;29;20030;-72
2021/04/04 12:12:08;;;;;;;7.32;5.20;;;282.10;1612.80;;;;;;4820211;29;20925;-72
2021/04/04 12:14:50;;;;;;;7.90;5.72;;;281.80;1664.00;;;;;;4821255;29;20437;-74
2021/04/04 12:17:17;;;;;;;7.28;5.68;;;256.80;1638.40;;;;;;4819570;29;20038;-72
2021/04/04 12:19:44;;;;;;;8.88;6.70;;;256.60;1689.60;;;;;;4804068;29;20496;-72
2021/04/04 12:22:11;;;;;;;8.35;6.22;;;256.50;1715.20;;;;;;4818555;29;20450;-72
2021/04/04 12:24:52;;;;;;;7.57;6.20;;;256.30;1715.20;;;;;;4817755;29;20034;-71
2021/04/04 12:27:26;;;;;;;9.60;6.93;;;256.30;1766.40;;;;;;4830236;29;20085;-71
2021/04/04 12:29:57;;;;;;;9.97;7.43;;;256.20;1766.40;;;;;;4820396;29;20032;-72
2021/04/04 12:32:34;;;;;;;13.70;9.27;;;256.20;1766.40;;;;;;4839667;29;20254;-72
2021/04/04 12:35:06;;;;;;;11.38;7.85;;;256.10;1792.00;;;;;;4837461;29;20395;-73
2021/04/04 12:37:37;;;;;;;16.17;10.30;;;256.10;1792.00;;;;;;4836149;29;20117;-71
2021/04/04 12:40:06;;;;;;;11.73;8.23;;;256.00;1817.60;;;;;;4839417;29;20048;-71